Time;durP1;ratioP1;P1;durP2;ratioP2;P2;SDS_P1;SDS_P2;PMS_P1;PMS_P2;Temp;Humidity;BMP_temperature;BMP_pressure;BME280_temperature;BME280_humidity;BME280_pressure;Samples;Min_cycle;Max_cycle;Signal;HPM_P1;HPM_P2
2022/04/05 00:00:27;;;;;;;10.70;2.87;;;;;;;4.21;100.00;98931.22;4998807;28;20069;-83
2022/04/05 00:02:55;;;;;;;6.97;2.73;;;;;;;4.17;100.00;98933.03;5026295;28;20050;-84
2022/04/05 00:05:24;;;;;;;8.40;1.90;;;;;;;4.16;100.00;98928.69;4996591;28;20804;-84
2022/04/05 00:07:51;;;;;;;3.70;1.97;;;;;;;4.07;100.00;98934.13;5012579;23;20046;-87
2022/04/05 00:10:17;;;;;;;5.63;1.90;;;;;;;4.03;100.00;98932.47;4983722;28;20553;-86
2022/04/05 00:12:44;;;;;;;6.47;1.87;;;;;;;4.10;100.00;98927.97;4986957;28;20046;-86
2022/04/05 00:15:11;;;;;;;6.07;2.97;;;;;;;4.10;100.00;98930.59;4987101;28;20045;-85
2022/04/05 00:17:38;;;;;;;7.87;2.70;;;;;;;4.01;100.00;98930.78;4987698;28;20069;-85
2022/04/05 00:20:07;;;;;;;4.63;1.63;;;;;;;3.98;100.00;98934.34;4967787;28;20057;-85
2022/04/05 00:22:34;;;;;;;7.33;2.03;;;;;;;3.98;100.00;98934.34;4970607;28;20065;-85
2022/04/05 00:25:01;;;;;;;8.13;1.67;;;;;;;3.89;100.00;98943.22;4986924;28;20074;-86
2022/04/05 00:27:28;;;;;;;4.87;1.80;;;;;;;3.91;100.00;98938.81;4970656;28;20109;-85
2022/04/05 00:29:55;;;;;;;6.17;2.10;;;;;;;3.82;100.00;98936.41;4970946;28;20053;-86
2022/04/05 00:32:21;;;;;;;4.63;2.23;;;;;;;3.79;100.00;98936.47;4987809;28;20034;-85
2022/04/05 00:34:48;;;;;;;3.77;1.73;;;;;;;3.81;100.00;98942.53;4969291;28;20499;-84
2022/04/05 00:37:15;;;;;;;5.50;1.90;;;;;;;3.87;100.00;98936.31;4971527;28;20045;-86
2022/04/05 00:39:42;;;;;;;6.73;2.23;;;;;;;3.85;100.00;98938.94;4987822;28;20042;-84
2022/04/05 00:42:10;;;;;;;6.37;1.63;;;;;;;3.81;100.00;98942.53;4987788;28;20045;-86
2022/04/05 00:44:37;;;;;;;7.97;1.97;;;;;;;3.79;100.00;98953.91;4970213;28;20507;-86
2022/04/05 00:47:21;;;;;;;5.03;2.00;;;;;;;3.74;100.00;98953.97;4969164;28;20045;-85
2022/04/05 00:49:49;;;;;;;5.90;2.30;;;;;;;3.75;100.00;98952.22;4970352;28;20510;-86
2022/04/05 00:52:17;;;;;;;7.87;2.33;;;;;;;3.70;100.00;98951.44;4970909;28;20376;-85
2022/04/05 00:54:45;;;;;;;4.67;1.97;;;;;;;3.64;100.00;98953.31;4971443;28;20049;-86
2022/04/05 00:57:14;;;;;;;8.93;2.30;;;;;;;3.67;100.00;98960.22;4973029;28;20518;-86
2022/04/05 00:59:43;;;;;;;5.53;2.23;;;;;;;3.61;100.00;98961.19;4990072;28;20058;-85
2022/04/05 01:02:16;;;;;;;4.80;2.10;;;;;;;3.66;100.00;98956.75;4970557;28;20117;-87
2022/04/05 01:04:43;;;;;;;4.33;2.37;;;;;;;3.65;100.00;98967.22;4985809;28;20044;-85
2022/04/05 01:07:16;;;;;;;6.60;2.27;;;;;;;3.66;100.00;98968.94;4972391;28;20418;-87
2022/04/05 01:09:43;;;;;;;5.97;2.43;;;;;;;3.66;100.00;98966.34;4974582;28;20053;-86
2022/04/05 01:12:12;;;;;;;5.83;2.50;;;;;;;3.65;100.00;98975.06;4976706;28;20553;-86
2022/04/05 01:14:40;;;;;;;7.33;2.00;;;;;;;3.58;100.00;98974.31;4969095;28;20046;-85
2022/04/05 01:17:07;;;;;;;6.23;2.30;;;;;;;3.59;100.00;98977.78;4960888;28;20069;-86
2022/04/05 01:19:34;;;;;;;10.53;2.40;;;;;;;3.49;100.00;98977.09;4975310;28;20050;-87
2022/04/05 01:22:01;;;;;;;6.90;2.53;;;;;;;3.54;100.00;98990.09;4976643;28;20053;-88
2022/04/05 01:24:28;;;;;;;6.23;2.30;;;;;;;3.53;100.00;98977.88;4992038;28;20132;-87
2022/04/05 01:26:57;;;;;;;7.63;2.20;;;;;;;3.49;100.00;98981.47;4977143;28;20064;-86
2022/04/05 01:29:26;;;;;;;4.33;2.17;;;;;;;3.49;100.00;98989.28;4992329;28;20495;-86
2022/04/05 01:32:03;;;;;;;10.33;3.00;;;;;;;3.47;100.00;98989.34;4972100;28;20484;-86
2022/04/05 01:34:32;;;;;;;7.57;2.30;;;;;;;3.50;100.00;98991.00;4984198;28;20052;-86
2022/04/05 01:37:00;;;;;;;4.93;2.10;;;;;;;3.41;100.00;98988.56;4993567;28;20045;-87
2022/04/05 01:39:30;;;;;;;11.53;2.63;;;;;;;3.36;100.00;98988.66;4975983;28;20553;-85
2022/04/05 01:41:59;;;;;;;8.07;2.80;;;;;;;3.33;100.00;98993.94;4978127;28;20487;-86
2022/04/05 01:44:26;;;;;;;8.77;2.80;;;;;;;3.33;100.00;98997.41;4976447;28;20046;-87
2022/04/05 01:46:53;;;;;;;7.80;3.93;;;;;;;3.35;100.00;98990.41;4974183;28;20411;-86
2022/04/05 01:49:20;;;;;;;9.97;2.87;;;;;;;3.36;100.00;98996.47;4990726;28;20065;-86
2022/04/05 01:51:47;;;;;;;6.00;2.00;;;;;;;3.35;100.00;98999.97;4992757;28;20033;-86
2022/04/05 01:54:16;;;;;;;8.80;2.30;;;;;;;3.35;100.00;98989.53;4971001;28;20049;-86
2022/04/05 01:56:49;;;;;;;11.10;3.77;;;;;;;3.28;100.00;99006.19;4992834;28;20046;-85
2022/04/05 01:59:18;;;;;;;7.77;2.27;;;;;;;3.27;100.00;99004.47;4992774;28;20046;-86
2022/04/05 02:01:44;;;;;;;6.67;2.60;;;;;;;3.29;100.00;99000.13;5007661;28;20662;-86
2022/04/05 02:04:12;;;;;;;4.53;3.03;;;;;;;3.23;100.00;99005.44;4975332;28;20422;-86
2022/04/05 02:06:39;;;;;;;6.10;2.63;;;;;;;3.27;100.00;98988.81;4976348;28;20458;-84
2022/04/05 02:09:06;;;;;;;9.07;2.77;;;;;;;3.32;100.00;99005.25;4971634;28;20049;-87
2022/04/05 02:11:34;;;;;;;5.83;2.10;;;;;;;3.33;100.00;99012.19;4967893;28;20049;-85
2022/04/05 02:14:00;;;;;;;7.87;3.33;;;;;;;3.30;100.00;99017.50;4991576;28;20056;-86
2022/04/05 02:16:28;;;;;;;6.67;1.80;;;;;;;3.38;100.00;99021.69;4976117;28;20050;-86
2022/04/05 02:18:55;;;;;;;8.00;2.37;;;;;;;3.35;100.00;99010.41;4991620;28;20104;-87
2022/04/05 02:21:22;;;;;;;9.87;2.20;;;;;;;3.28;100.00;99012.31;4974692;28;20514;-87
2022/04/05 02:23:49;;;;;;;9.10;2.73;;;;;;;3.26;100.00;99014.06;4971082;28;20046;-87
2022/04/05 02:26:16;;;;;;;8.63;2.77;;;;;;;3.32;100.00;99013.97;4973504;28;20119;-86
2022/04/05 02:28:43;;;;;;;9.07;2.40;;;;;;;3.24;100.00;99010.63;4977417;28;20049;-87
2022/04/05 02:31:10;;;;;;;11.53;2.30;;;;;;;3.29;100.00;99016.63;4979518;28;20053;-87
2022/04/05 02:33:36;;;;;;;8.20;2.27;;;;;;;3.23;100.00;99018.47;5010618;28;20454;-87
2022/04/05 02:36:03;;;;;;;10.67;2.43;;;;;;;3.21;100.00;99018.50;4979684;28;20442;-86
2022/04/05 02:38:30;;;;;;;8.20;2.90;;;;;;;3.23;100.00;99024.56;4992004;28;20061;-85
2022/04/05 02:40:57;;;;;;;9.23;3.00;;;;;;;3.16;100.00;99015.09;4988146;28;20487;-85
2022/04/05 02:43:24;;;;;;;4.73;2.93;;;;;;;3.07;100.00;99026.56;4978031;28;20038;-85
2022/04/05 02:45:55;;;;;;;17.53;4.60;;;;;;;3.14;100.00;99021.25;4978648;28;20142;-87
2022/04/05 02:48:22;;;;;;;6.00;2.30;;;;;;;3.09;100.00;99016.09;4977291;28;20358;-85
2022/04/05 02:50:50;;;;;;;6.00;2.30;;;;;;;3.05;100.00;99024.88;4995178;28;20049;-87
2022/04/05 02:53:17;;;;;;;10.57;2.70;;;;;;;3.07;100.00;99033.53;4978117;28;20049;-86
2022/04/05 02:55:45;;;;;;;8.63;2.30;;;;;;;3.10;100.00;99036.06;4996637;28;20419;-86
2022/04/05 02:58:12;;;;;;;4.90;1.83;;;;;;;3.05;100.00;99037.91;4995277;28;20048;-87
2022/04/05 03:00:39;;;;;;;11.73;2.70;;;;;;;3.08;100.00;99038.72;4995364;28;20041;-86
2022/04/05 03:03:06;;;;;;;6.00;2.87;;;;;;;2.95;100.00;99031.13;4976403;28;20042;-88
2022/04/05 03:05:33;;;;;;;7.30;2.30;;;;;;;2.97;100.00;99030.22;4979373;28;20066;-87
2022/04/05 03:08:00;;;;;;;8.47;2.57;;;;;;;3.08;100.00;99037.84;5011044;28;20057;-88
2022/04/05 03:10:29;;;;;;;8.23;2.67;;;;;;;3.02;100.00;99038.81;5009727;28;20502;-88
2022/04/05 03:12:56;;;;;;;11.83;2.73;;;;;;;3.02;100.00;99046.63;4994999;28;20041;-88
2022/04/05 03:15:22;;;;;;;9.80;2.93;;;;;;;2.95;100.00;99045.03;4994444;28;20034;-86
2022/04/05 03:17:50;;;;;;;7.60;2.37;;;;;;;2.98;100.00;99058.00;4978328;28;20430;-87
2022/04/05 03:20:16;;;;;;;8.50;2.47;;;;;;;2.95;100.00;99046.78;4978754;28;20045;-87
2022/04/05 03:22:43;;;;;;;9.10;2.37;;;;;;;2.98;100.00;99058.00;4976314;28;20048;-86
2022/04/05 03:25:10;;;;;;;10.53;2.70;;;;;;;2.96;100.00;99056.31;4976862;28;20046;-86
2022/04/05 03:27:41;;;;;;;9.67;2.80;;;;;;;2.89;100.00;99054.69;4974251;28;20041;-86
2022/04/05 03:30:09;;;;;;;9.90;2.27;;;;;;;3.08;100.00;99061.34;4991196;28;20049;-88
2022/04/05 03:32:36;;;;;;;7.53;2.20;;;;;;;3.07;100.00;99065.69;4978887;28;20513;-87
2022/04/05 03:35:07;;;;;;;7.87;2.17;;;;;;;2.98;100.00;99062.38;4993965;28;20053;-86
2022/04/05 03:37:34;;;;;;;9.97;2.47;;;;;;;3.06;100.00;99061.38;4994750;28;20041;-88
2022/04/05 03:40:01;;;;;;;6.33;2.83;;;;;;;3.00;100.00;99065.81;4976778;28;20048;-85
2022/04/05 03:42:28;;;;;;;10.77;3.60;;;;;;;3.00;100.00;99066.66;4981317;28;20042;-87
2022/04/05 03:44:54;;;;;;;7.57;2.33;;;;;;;2.99;100.00;99069.31;4976661;28;20489;-87
2022/04/05 03:47:22;;;;;;;14.07;2.73;;;;;;;3.00;100.00;99066.66;4994055;28;20503;-87
2022/04/05 03:49:49;;;;;;;6.50;2.97;;;;;;;2.94;100.00;99085.00;4977433;28;20137;-87
2022/04/05 03:52:16;;;;;;;5.20;2.00;;;;;;;2.95;100.00;99083.28;4992990;28;20040;-84
2022/04/05 03:54:43;;;;;;;7.97;2.90;;;;;;;2.94;100.00;99077.19;5001302;28;20557;-87
2022/04/05 03:57:09;;;;;;;6.43;1.80;;;;;;;2.92;100.00;99080.72;4979938;28;20125;-84
2022/04/05 03:59:36;;;;;;;9.30;2.03;;;;;;;3.05;100.00;99084.88;5010990;28;20041;-86
2022/04/05 04:02:04;;;;;;;6.57;2.17;;;;;;;2.96;100.00;99075.44;4979201;28;20469;-85
2022/04/05 04:04:31;;;;;;;8.73;2.80;;;;;;;2.96;100.00;99077.19;4978084;28;20096;-84
2022/04/05 04:06:57;;;;;;;8.43;2.47;;;;;;;2.99;100.00;99077.13;4975291;28;20512;-83
2022/04/05 04:09:24;;;;;;;9.87;3.00;;;;;;;3.02;100.00;99082.28;4977062;28;20045;-84
2022/04/05 04:11:51;;;;;;;9.67;2.50;;;;;;;2.97;100.00;99090.22;5009264;28;20046;-84
2022/04/05 04:14:18;;;;;;;8.57;2.13;;;;;;;2.94;100.00;99084.16;4973973;28;20041;-85
2022/04/05 04:16:44;;;;;;;6.33;2.00;;;;;;;2.97;100.00;99077.16;4996169;28;20052;-83
2022/04/05 04:19:11;;;;;;;7.77;2.30;;;;;;;3.02;100.00;99075.31;4977279;28;20092;-85
2022/04/05 04:21:38;;;;;;;10.20;2.63;;;;;;;2.95;100.00;99084.16;4978310;28;20045;-85
2022/04/05 04:24:05;;;;;;;7.03;2.10;;;;;;;2.96;100.00;99078.06;4977766;28;20132;-84
2022/04/05 04:26:31;;;;;;;10.60;2.53;;;;;;;2.95;100.00;99081.56;4979205;28;20050;-85
2022/04/05 04:29:02;;;;;;;7.33;2.13;;;;;;;2.92;100.00;99088.53;4996306;28;20720;-85
2022/04/05 04:31:28;;;;;;;7.20;2.00;;;;;;;2.92;100.00;99080.72;5014782;28;20045;-83
2022/04/05 04:33:55;;;;;;;7.37;1.90;;;;;;;2.90;100.00;99090.31;4994046;28;20039;-85
2022/04/05 04:36:22;;;;;;;8.47;2.37;;;;;;;2.93;100.00;99082.44;5003087;28;20126;-85
2022/04/05 04:38:49;;;;;;;8.80;2.50;;;;;;;2.91;100.00;99090.28;4995717;28;20499;-83
2022/04/05 04:41:22;;;;;;;5.37;2.27;;;;;;;2.90;100.00;99092.94;4994646;28;20479;-85
2022/04/05 04:43:50;;;;;;;8.07;1.90;;;;;;;2.82;100.00;99093.91;4993170;28;20034;-85
2022/04/05 04:46:16;;;;;;;8.60;3.23;;;;;;;2.97;100.00;99105.00;4978430;28;20146;-83
2022/04/05 04:48:43;;;;;;;7.07;1.97;;;;;;;3.00;100.00;99107.56;4977709;28;20046;-84
2022/04/05 04:51:10;;;;;;;11.93;3.67;;;;;;;2.99;100.00;99111.03;4994372;28;20088;-86
2022/04/05 04:53:37;;;;;;;11.80;2.80;;;;;;;2.93;100.00;99108.53;4977588;28;20038;-84
2022/04/05 04:56:03;;;;;;;5.73;1.93;;;;;;;2.93;100.00;99116.34;4979357;28;20092;-84
2022/04/05 04:58:36;;;;;;;10.50;2.90;;;;;;;2.91;100.00;99121.59;5009706;28;20507;-85
2022/04/05 05:01:03;;;;;;;11.50;2.53;;;;;;;2.90;100.00;99119.00;4994841;28;20479;-84
2022/04/05 05:03:30;;;;;;;8.03;2.57;;;;;;;2.97;100.00;99129.34;4993844;28;20038;-85
2022/04/05 05:05:57;;;;;;;8.03;1.90;;;;;;;3.06;100.00;99133.56;4979752;28;20065;-85
2022/04/05 05:08:23;;;;;;;7.00;2.53;;;;;;;3.11;100.00;99134.34;4993857;28;20103;-82
2022/04/05 05:10:50;;;;;;;5.33;1.80;;;;;;;3.12;100.00;99132.63;4979354;28;20503;-85
2022/04/05 05:13:17;;;;;;;5.43;2.10;;;;;;;3.09;100.00;99143.94;4989744;28;20319;-85
2022/04/05 05:15:45;;;;;;;10.00;3.20;;;;;;;3.07;100.00;99146.56;4996729;28;20050;-84
2022/04/05 05:18:12;;;;;;;6.37;2.10;;;;;;;3.08;100.00;99150.03;4976686;28;20081;-84
2022/04/05 05:20:39;;;;;;;10.00;2.50;;;;;;;3.22;100.00;99155.94;4977738;28;20128;-87
2022/04/05 05:23:05;;;;;;;6.77;2.20;;;;;;;3.26;100.00;99162.81;4993361;28;20042;-84
2022/04/05 05:25:32;;;;;;;8.00;2.10;;;;;;;3.24;100.00;99167.22;4993769;28;20125;-84
2022/04/05 05:28:00;;;;;;;7.53;2.77;;;;;;;3.22;100.00;99163.75;5010143;28;20042;-85
2022/04/05 05:30:27;;;;;;;10.67;3.50;;;;;;;3.32;100.00;99173.19;5009041;28;20045;-85
2022/04/05 05:32:54;;;;;;;6.30;2.40;;;;;;;3.34;100.00;99178.38;4993753;28;20038;-85
2022/04/05 05:35:21;;;;;;;9.30;3.20;;;;;;;3.39;100.00;99181.78;4976732;28;20049;-82
2022/04/05 05:37:48;;;;;;;7.20;2.50;;;;;;;3.33;100.00;99187.09;4978003;28;20045;-86
2022/04/05 05:40:16;;;;;;;8.93;3.00;;;;;;;3.43;100.00;99185.19;4994753;28;20407;-86
2022/04/05 05:42:46;;;;;;;5.30;2.13;;;;;;;3.51;100.00;99181.56;5004517;28;20046;-83
2022/04/05 05:45:14;;;;;;;9.70;2.53;;;;;;;3.55;100.00;99200.69;4993468;28;20096;-84
2022/04/05 05:47:40;;;;;;;5.40;1.90;;;;;;;3.56;100.00;99203.28;4978658;28;20433;-85
2022/04/05 05:50:10;;;;;;;8.80;1.73;;;;;;;3.73;100.00;99197.78;5009655;28;20034;-86
2022/04/05 05:52:36;;;;;;;5.30;1.83;;;;;;;3.77;100.00;99206.41;4994588;28;20065;-85
2022/04/05 05:55:04;;;;;;;9.47;2.10;;;;;;;3.74;100.00;99207.34;4992934;28;20045;-84
2022/04/05 05:57:31;;;;;;;7.80;3.13;;;;;;;3.76;100.00;99216.00;4992515;28;20042;-85
2022/04/05 05:59:57;;;;;;;6.93;2.13;;;;;;;3.84;100.00;99218.50;4992792;28;20042;-86
2022/04/05 06:02:24;;;;;;;7.83;2.93;;;;;;;3.84;100.00;99221.09;4977804;28;20462;-85
2022/04/05 06:04:51;;;;;;;8.47;1.80;;;;;;;3.80;100.00;99225.53;5012599;28;20041;-84
2022/04/05 06:07:17;;;;;;;6.60;2.03;;;;;;;3.89;100.00;99222.78;5005393;28;20410;-85
2022/04/05 06:09:44;;;;;;;6.10;1.60;;;;;;;3.95;100.00;99233.13;4996873;28;20045;-85
2022/04/05 06:12:11;;;;;;;6.47;2.60;;;;;;;4.04;100.00;99226.03;4962724;28;20047;-86
2022/04/05 06:14:38;;;;;;;6.10;2.10;;;;;;;4.16;100.00;99237.13;4962271;28;20407;-84
2022/04/05 06:17:05;;;;;;;3.37;1.60;;;;;;;4.21;98.55;99237.06;4978897;28;20046;-86
2022/04/05 06:19:32;;;;;;;8.57;2.83;;;;;;;4.31;98.11;99232.50;4961862;28;20438;-83
2022/04/05 06:21:58;;;;;;;7.73;1.47;;;;;;;4.35;94.99;99242.88;4996550;28;20066;-86
2022/04/05 06:24:25;;;;;;;5.40;1.80;;;;;;;4.41;97.04;99255.84;4980782;28;20053;-86
2022/04/05 06:26:52;;;;;;;5.03;1.80;;;;;;;4.30;93.22;99247.34;5013957;28;20076;-84
2022/04/05 06:29:18;;;;;;;8.23;2.57;;;;;;;4.45;93.12;99257.50;4996720;28;20042;-84
2022/04/05 06:31:45;;;;;;;4.40;1.90;;;;;;;4.73;91.55;99260.47;4999546;28;20042;-84
2022/04/05 06:34:12;;;;;;;5.40;1.37;;;;;;;4.82;92.30;99264.69;5079531;23;20034;-78
2022/04/05 06:36:39;;;;;;;3.90;1.30;;;;;;;4.82;90.48;99258.59;5010654;28;20045;-78
2022/04/05 06:39:06;;;;;;;6.30;2.00;;;;;;;4.73;89.00;99276.19;5015381;28;20049;-78
2022/04/05 06:41:33;;;;;;;3.57;1.40;;;;;;;4.80;90.38;99274.31;4988672;28;20068;-78
2022/04/05 06:44:00;;;;;;;5.03;1.47;;;;;;;4.99;89.73;99278.28;5014787;28;20038;-78
2022/04/05 06:46:30;;;;;;;5.23;1.70;;;;;;;5.19;85.99;99277.88;4982574;28;20045;-79
2022/04/05 06:48:56;;;;;;;5.20;1.50;;;;;;;5.13;84.69;99291.09;5014373;28;20046;-78
2022/04/05 06:51:24;;;;;;;5.80;1.60;;;;;;;5.16;87.07;99288.41;5006919;28;20044;-78
2022/04/05 06:53:52;;;;;;;8.23;2.20;;;;;;;5.24;85.14;99285.63;5008947;28;20493;-78
2022/04/05 06:56:21;;;;;;;3.07;1.30;;;;;;;5.48;80.45;99295.59;5004152;28;20091;-77
2022/04/05 06:58:48;;;;;;;3.13;1.57;;;;;;;5.76;78.87;99308.09;5003989;28;20041;-79
2022/04/05 07:01:15;;;;;;;6.10;1.73;;;;;;;5.92;80.03;99302.50;5012515;28;20034;-78
2022/04/05 07:03:42;;;;;;;6.77;1.50;;;;;;;6.16;80.09;99311.53;4994856;28;20501;-78
2022/04/05 07:06:08;;;;;;;4.20;1.50;;;;;;;6.33;74.50;99305.03;4983398;28;20045;-78
2022/04/05 07:08:36;;;;;;;5.53;1.53;;;;;;;6.19;76.05;99314.06;5003019;28;20525;-78
2022/04/05 07:11:03;;;;;;;6.10;1.70;;;;;;;6.13;72.40;99306.34;4980543;28;20037;-78
2022/04/05 07:13:30;;;;;;;7.17;1.80;;;;;;;6.24;75.33;99313.97;4998160;28;20038;-78
2022/04/05 07:15:58;;;;;;;7.10;1.77;;;;;;;5.95;74.71;99327.75;4999450;28;20460;-79
2022/04/05 07:18:24;;;;;;;2.87;1.40;;;;;;;6.31;76.03;99326.03;5001519;28;20049;-78
2022/04/05 07:20:52;;;;;;;5.20;1.50;;;;;;;6.38;72.27;99318.84;4998108;28;20053;-78
2022/04/05 07:23:20;;;;;;;7.20;1.50;;;;;;;6.49;74.04;99320.34;5011618;28;20042;-79
2022/04/05 07:25:47;;;;;;;4.93;1.50;;;;;;;6.66;73.50;99325.16;5028439;28;20046;-78
2022/04/05 07:28:13;;;;;;;4.00;1.30;;;;;;;6.97;71.63;99330.44;5019815;28;20049;-79
2022/04/05 07:30:40;;;;;;;5.13;1.47;;;;;;;6.93;72.09;99331.44;5003903;28;20057;-79
2022/04/05 07:33:07;;;;;;;5.33;2.10;;;;;;;6.87;70.55;99328.09;5014231;28;20053;-79
2022/04/05 07:35:34;;;;;;;5.50;1.80;;;;;;;6.82;68.99;99323.00;5010084;28;20044;-78
2022/04/05 07:38:01;;;;;;;5.37;1.57;;;;;;;6.99;70.68;99326.03;4995176;28;20045;-79
2022/04/05 07:40:47;;;;;;;3.93;1.53;;;;;;;6.93;69.17;99330.56;5006858;28;20414;-78
2022/04/05 07:43:22;;;;;;;5.13;1.47;;;;;;;6.61;68.20;99334.03;5013852;28;20465;-78
2022/04/05 07:45:50;;;;;;;4.63;1.60;;;;;;;6.20;67.21;99336.78;4993153;28;20095;-78
2022/04/05 07:48:22;;;;;;;6.57;1.90;;;;;;;6.41;70.30;99340.66;4994560;28;20487;-78
2022/04/05 07:50:49;;;;;;;8.33;1.70;;;;;;;6.07;67.26;99337.97;5008524;28;20042;-78
2022/04/05 07:53:16;;;;;;;4.57;1.50;;;;;;;6.43;73.00;99351.09;4983543;28;20045;-78
2022/04/05 07:55:43;;;;;;;5.33;2.90;;;;;;;6.52;68.88;99345.63;4999024;28;20395;-78
2022/04/05 07:58:10;;;;;;;4.17;1.43;;;;;;;6.69;70.31;99356.56;4997786;28;20041;-79
2022/04/05 08:00:36;;;;;;;6.60;3.30;;;;;;;6.64;69.46;99345.34;4981714;28;20041;-78
2022/04/05 08:03:03;;;;;;;6.23;1.53;;;;;;;6.78;68.01;99348.44;4996454;28;20435;-78
2022/04/05 08:05:30;;;;;;;4.97;1.43;;;;;;;6.84;67.49;99364.94;4992468;28;20046;-79
2022/04/05 08:07:56;;;;;;;4.57;2.07;;;;;;;6.62;67.55;99383.84;5011056;28;20042;-79
2022/04/05 08:10:23;;;;;;;4.37;1.47;;;;;;;6.77;65.71;99369.47;4999570;28;20514;-79
2022/04/05 08:12:50;;;;;;;4.20;1.87;;;;;;;6.84;66.62;99365.81;5011652;28;20042;-78
2022/04/05 08:15:21;;;;;;;5.40;1.70;;;;;;;6.79;67.16;99367.66;5011816;28;20041;-79
2022/04/05 08:17:50;;;;;;;4.63;1.67;;;;;;;6.94;65.93;99376.94;4973671;28;20047;-78
2022/04/05 08:20:17;;;;;;;5.23;1.77;;;;;;;7.01;64.15;99375.88;5016917;28;20509;-79
2022/04/05 08:22:44;;;;;;;3.67;1.43;;;;;;;7.09;66.45;99386.16;5018338;28;20038;-79
2022/04/05 08:25:14;;;;;;;2.83;1.50;;;;;;;7.17;63.56;99381.56;4990611;28;20037;-78
2022/04/05 08:27:45;;;;;;;3.40;1.93;;;;;;;7.21;63.43;99385.81;4998273;28;20103;-78
2022/04/05 08:30:15;;;;;;;4.50;1.67;;;;;;;7.06;61.01;99392.34;4980817;28;20042;-78
2022/04/05 08:32:43;;;;;;;3.93;1.93;;;;;;;6.98;59.14;99384.69;4996938;28;20046;-80
2022/04/05 08:35:12;;;;;;;2.83;1.70;;;;;;;6.99;59.56;99382.94;5029165;28;20041;-80
2022/04/05 08:37:40;;;;;;;4.33;1.67;;;;;;;7.17;61.71;99408.69;5011136;28;20046;-80
2022/04/05 08:40:10;;;;;;;7.20;1.50;;;;;;;7.15;61.04;99393.91;4994547;28;20051;-78
2022/04/05 08:42:40;;;;;;;4.07;1.33;;;;;;;7.30;61.06;99393.44;4982076;28;20053;-79
2022/04/05 08:45:10;;;;;;;2.90;1.30;;;;;;;7.43;60.58;99391.38;4981516;28;20441;-78
2022/04/05 08:47:41;;;;;;;10.17;1.83;;;;;;;7.45;58.45;99408.81;5000487;28;20088;-78
2022/04/05 08:50:08;;;;;;;4.43;1.13;;;;;;;7.53;59.35;99401.56;4985294;28;20041;-78
2022/04/05 08:52:35;;;;;;;3.13;1.40;;;;;;;7.76;59.70;99402.69;5013640;28;20048;-78
2022/04/05 08:55:02;;;;;;;3.27;1.37;;;;;;;8.00;57.68;99401.97;5012278;28;20032;-78
2022/04/05 08:57:29;;;;;;;2.07;1.30;;;;;;;8.01;56.47;99405.44;4983841;28;20490;-78
2022/04/05 08:59:55;;;;;;;3.67;1.07;;;;;;;8.23;56.69;99408.28;4997216;28;20103;-78
2022/04/05 09:02:26;;;;;;;6.13;1.47;;;;;;;8.22;58.05;99399.53;4998106;28;20049;-80
2022/04/05 09:04:53;;;;;;;3.88;1.60;;;;;;;8.20;54.57;99411.88;4996617;28;20064;-80
2022/04/05 09:07:22;;;;;;;4.37;1.33;;;;;;;7.69;53.09;99424.78;4997782;28;20037;-78
2022/04/05 09:10:13;;;;;;;5.40;1.30;;;;;;;7.93;55.77;99415.34;4995922;28;20053;-78
2022/04/05 09:12:41;;;;;;;5.55;1.75;;;;;;;8.22;55.81;99424.97;5014260;28;20391;-79
2022/04/05 09:15:17;;;;;;;6.40;1.58;;;;;;;8.43;55.54;99416.44;5012274;28;20041;-79
2022/04/05 09:17:46;;;;;;;6.77;1.60;;;;;;;8.38;57.59;99403.44;5009056;28;20042;-78
2022/04/05 09:20:14;;;;;;;2.77;1.33;;;;;;;8.48;57.83;99418.94;4977102;28;20069;-79
2022/04/05 09:22:41;;;;;;;2.23;1.50;;;;;;;8.57;56.58;99422.13;4978545;28;20045;-79
2022/04/05 09:25:10;;;;;;;3.28;1.20;;;;;;;8.55;54.97;99418.69;4990836;28;20037;-79
2022/04/05 09:27:51;;;;;;;1.97;1.03;;;;;;;8.71;56.70;99405.88;5013325;28;20045;-79
2022/04/05 09:30:20;;;;;;;5.80;1.65;;;;;;;9.01;58.48;99418.03;5025412;28;20509;-80
2022/04/05 09:32:48;;;;;;;6.00;2.47;;;;;;;9.34;57.87;99415.16;4990042;28;20060;-79
2022/04/05 09:35:20;;;;;;;6.10;1.58;;;;;;;9.23;52.90;99418.16;4986660;28;20115;-79
2022/04/05 09:37:47;;;;;;;3.40;1.52;;;;;;;8.94;53.74;99415.66;4984286;28;20487;-79
2022/04/05 09:40:19;;;;;;;3.95;1.20;;;;;;;8.63;52.57;99419.28;4996351;28;20514;-80
2022/04/05 09:43:08;;;;;;;3.35;1.00;;;;;;;8.55;51.59;99417.81;4990865;28;20053;-80
2022/04/05 09:45:42;;;;;;;5.70;1.13;;;;;;;7.66;52.94;99430.16;4979313;28;20062;-80
2022/04/05 09:48:10;;;;;;;4.72;1.52;;;;;;;8.03;56.15;99445.72;4978645;28;20525;-79
2022/04/05 09:51:00;;;;;;;6.77;1.60;;;;;;;8.37;53.84;99437.69;4993577;28;20041;-79
2022/04/05 09:53:28;;;;;;;4.57;1.63;;;;;;;7.94;54.12;99449.47;5021184;28;20041;-80
2022/04/05 09:56:07;;;;;;;4.83;1.43;;;;;;;8.35;60.04;99436.88;4998818;28;20056;-80
2022/04/05 09:58:34;;;;;;;5.00;1.30;;;;;;;8.60;56.73;99436.97;4992994;28;20041;-79
2022/04/05 10:01:08;;;;;;;4.53;1.47;;;;;;;7.99;57.86;99438.81;5004193;28;20048;-78
2022/04/05 10:03:35;;;;;;;5.00;1.23;;;;;;;8.25;56.90;99445.94;5005585;28;20076;-80
2022/04/05 10:06:03;;;;;;;3.73;1.10;;;;;;;8.51;59.46;99445.16;5001507;28;20470;-80
2022/04/05 10:08:35;;;;;;;3.63;1.30;;;;;;;8.59;53.52;99443.16;4998144;28;20069;-79
2022/04/05 10:11:02;;;;;;;3.38;1.00;;;;;;;8.59;56.29;99436.13;4991038;28;20065;-78
2022/04/05 10:13:29;;;;;;;1.75;0.98;;;;;;;9.02;57.80;99434.72;4985421;28;20498;-79
2022/04/05 10:15:57;;;;;;;5.13;1.40;;;;;;;9.24;54.09;99440.09;4997198;28;20038;-79
2022/04/05 10:18:25;;;;;;;4.13;1.63;;;;;;;9.08;53.02;99444.16;4979677;28;20057;-79
2022/04/05 10:20:52;;;;;;;3.22;1.80;;;;;;;8.98;50.91;99444.47;4980886;28;20049;-79
2022/04/05 10:23:21;;;;;;;4.05;1.83;;;;;;;8.92;50.74;99444.69;4976824;28;20050;-79
2022/04/05 10:25:52;;;;;;;7.22;3.00;;;;;;;8.80;52.47;99434.53;5000090;28;20033;-78
2022/04/05 10:28:30;;;;;;;6.43;1.67;;;;;;;8.58;53.68;99441.44;4993001;28;20414;-78
2022/04/05 10:31:00;;;;;;;5.95;2.95;;;;;;;8.44;52.53;99433.97;4977820;28;20131;-79
2022/04/05 10:33:38;;;;;;;5.60;2.00;;;;;;;8.96;55.38;99432.28;5013486;28;20478;-78
2022/04/05 10:36:06;;;;;;;4.50;1.17;;;;;;;9.43;56.76;99433.28;5008331;28;20103;-79
2022/04/05 10:38:32;;;;;;;3.28;1.85;;;;;;;9.39;52.61;99429.03;5021907;28;20049;-79
2022/04/05 10:41:19;;;;;;;4.80;1.63;;;;;;;9.41;53.16;99440.38;5023843;28;20512;-79
2022/04/05 10:43:49;;;;;;;4.25;1.30;;;;;;;9.40;50.77;99436.00;4998015;28;20080;-79
2022/04/05 10:46:39;;;;;;;6.70;1.23;;;;;;;9.36;51.76;99441.47;5025781;28;20552;-79
2022/04/05 10:49:42;;;;;;;4.20;1.77;;;;;;;9.19;51.13;99442.03;5002258;28;20041;-79
2022/04/05 10:52:15;;;;;;;3.58;1.20;;;;;;;8.93;53.47;99446.41;5002214;28;20120;-79
2022/04/05 10:54:46;;;;;;;3.92;1.10;;;;;;;8.95;54.61;99456.91;5002672;28;20052;-79
2022/04/05 10:57:27;;;;;;;2.20;1.10;;;;;;;8.91;54.33;99455.25;5013579;28;20036;-79
2022/04/05 10:59:54;;;;;;;4.47;1.77;;;;;;;9.16;54.97;99444.75;5011074;28;20045;-79
2022/04/05 11:02:44;;;;;;;5.85;2.03;;;;;;;8.93;52.28;99446.41;5018263;28;20041;-79
2022/04/05 11:05:14;;;;;;;5.20;1.25;;;;;;;9.12;52.23;99446.66;5029334;28;20040;-79
2022/04/05 11:08:03;;;;;;;2.75;0.93;;;;;;;9.34;52.29;99440.66;5018425;28;20054;-80
2022/04/05 11:10:36;;;;;;;4.22;1.80;;;;;;;9.57;51.99;99428.34;5020227;28;20101;-79
2022/04/05 11:13:13;;;;;;;3.72;1.40;;;;;;;9.67;51.03;99430.66;5020346;28;20511;-80
2022/04/05 11:15:52;;;;;;;2.67;0.93;;;;;;;9.55;51.81;99440.75;5002424;28;20056;-79
2022/04/05 11:18:24;;;;;;;4.43;1.48;;;;;;;9.48;51.20;99431.31;5005210;28;20054;-80
2022/04/05 11:20:54;;;;;;;5.15;1.35;;;;;;;9.29;53.17;99430.25;5004139;28;20041;-80
2022/04/05 11:23:38;;;;;;;3.50;1.60;;;;;;;9.30;52.51;99431.97;5002359;28;20499;-79
2022/04/05 11:26:22;;;;;;;5.45;1.20;;;;;;;9.23;51.75;99425.19;4991199;28;20037;-79
2022/04/05 11:28:52;;;;;;;5.45;1.80;;;;;;;9.03;51.34;99429.38;5012233;28;20127;-80
2022/04/05 11:31:39;;;;;;;2.95;1.30;;;;;;;8.53;53.46;99436.31;5017783;28;20056;-80
2022/04/05 11:34:35;;;;;;;2.88;1.33;;;;;;;8.66;52.51;99447.28;5024349;28;20040;-80
2022/04/05 11:37:03;;;;;;;2.58;1.13;;;;;;;8.83;53.76;99434.47;5017770;28;20052;-80
2022/04/05 11:39:35;;;;;;;3.22;1.10;;;;;;;8.97;53.03;99420.81;5016978;28;20041;-79
2022/04/05 11:42:01;;;;;;;3.97;1.75;;;;;;;8.81;50.50;99425.72;5001175;28;20042;-80
2022/04/05 11:44:28;;;;;;;4.40;1.85;;;;;;;9.16;53.54;99431.59;5032846;28;20037;-80